sensor_id;sensor_type;location;lat;lon;timestamp;temperature;humidity
10175;DHT22;18221;38.704;0.152;2024-03-02T00:01:21;12.80;99.90
10175;DHT22;18221;38.704;0.152;2024-03-02T00:03:49;12.80;99.90
10175;DHT22;18221;38.704;0.152;2024-03-02T00:06:20;12.70;99.90
10175;DHT22;18221;38.704;0.152;2024-03-02T00:08:48;12.70;99.90
10175;DHT22;18221;38.704;0.152;2024-03-02T00:11:16;12.70;99.90
10175;DHT22;18221;38.704;0.152;2024-03-02T00:13:47;14.20;99.90
10175;DHT22;18221;38.704;0.152;2024-03-02T00:16:15;12.60;99.90
10175;DHT22;18221;38.704;0.152;2024-03-02T00:18:44;12.50;99.90
10175;DHT22;18221;38.704;0.152;2024-03-02T00:21:12;12.50;99.90
10175;DHT22;18221;38.704;0.152;2024-03-02T00:23:42;12.50;99.90
10175;DHT22;18221;38.704;0.152;2024-03-02T00:26:11;12.50;99.90
10175;DHT22;18221;38.704;0.152;2024-03-02T00:28:40;12.50;99.90
10175;DHT22;18221;38.704;0.152;2024-03-02T00:31:12;12.50;99.90
10175;DHT22;18221;38.704;0.152;2024-03-02T00:33:42;12.40;99.90
10175;DHT22;18221;38.704;0.152;2024-03-02T00:36:13;12.40;99.90
10175;DHT22;18221;38.704;0.152;2024-03-02T00:38:47;12.40;99.90
10175;DHT22;18221;38.704;0.152;2024-03-02T00:41:21;12.40;99.90
10175;DHT22;18221;38.704;0.152;2024-03-02T00:44:09;12.40;99.90
10175;DHT22;18221;38.704;0.152;2024-03-02T00:46:41;12.40;99.90
10175;DHT22;18221;38.704;0.152;2024-03-02T00:49:17;12.40;99.90
10175;DHT22;18221;38.704;0.152;2024-03-02T01:02:12;12.30;99.90
10175;DHT22;18221;38.704;0.152;2024-03-02T01:04:40;12.30;99.90
10175;DHT22;18221;38.704;0.152;2024-03-02T01:07:07;12.30;99.90
10175;DHT22;18221;38.704;0.152;2024-03-02T01:09:35;12.40;99.90
10175;DHT22;18221;38.704;0.152;2024-03-02T01:12:03;12.40;99.90
10175;DHT22;18221;38.704;0.152;2024-03-02T01:14:31;12.50;99.90
10175;DHT22;18221;38.704;0.152;2024-03-02T01:16:59;12.50;99.90
10175;DHT22;18221;38.704;0.152;2024-03-02T01:19:30;12.60;99.90
10175;DHT22;18221;38.704;0.152;2024-03-02T01:21:58;12.70;99.90
10175;DHT22;18221;38.704;0.152;2024-03-02T01:24:26;12.70;99.90
10175;DHT22;18221;38.704;0.152;2024-03-02T01:26:54;12.70;99.90
10175;DHT22;18221;38.704;0.152;2024-03-02T01:29:22;12.80;99.90
10175;DHT22;18221;38.704;0.152;2024-03-02T01:31:49;12.80;99.90
10175;DHT22;18221;38.704;0.152;2024-03-02T01:34:19;12.90;99.90
10175;DHT22;18221;38.704;0.152;2024-03-02T01:36:48;12.90;99.90
10175;DHT22;18221;38.704;0.152;2024-03-02T01:39:16;14.40;99.90
10175;DHT22;18221;38.704;0.152;2024-03-02T01:41:44;12.90;99.90
10175;DHT22;18221;38.704;0.152;2024-03-02T01:44:11;12.80;99.90
10175;DHT22;18221;38.704;0.152;2024-03-02T01:46:39;12.80;99.90
10175;DHT22;18221;38.704;0.152;2024-03-02T01:49:07;12.70;99.90
10175;DHT22;18221;38.704;0.152;2024-03-02T01:51:35;12.70;99.90
10175;DHT22;18221;38.704;0.152;2024-03-02T01:54:05;12.70;99.90
10175;DHT22;18221;38.704;0.152;2024-03-02T01:56:32;12.70;99.90
10175;DHT22;18221;38.704;0.152;2024-03-02T01:59:00;12.70;99.90
10175;DHT22;18221;38.704;0.152;2024-03-02T02:01:29;12.60;99.90
10175;DHT22;18221;38.704;0.152;2024-03-02T02:03:57;12.60;99.90
10175;DHT22;18221;38.704;0.152;2024-03-02T02:06:25;12.60;99.90
10175;DHT22;18221;38.704;0.152;2024-03-02T02:08:52;12.70;99.90
10175;DHT22;18221;38.704;0.152;2024-03-02T02:11:22;12.60;99.90
10175;DHT22;18221;38.704;0.152;2024-03-02T02:13:50;12.60;99.90
10175;DHT22;18221;38.704;0.152;2024-03-02T02:16:18;12.60;99.90
10175;DHT22;18221;38.704;0.152;2024-03-02T02:18:46;12.60;99.90
10175;DHT22;18221;38.704;0.152;2024-03-02T02:21:13;12.60;99.90
10175;DHT22;18221;38.704;0.152;2024-03-02T02:23:43;12.50;99.90
10175;DHT22;18221;38.704;0.152;2024-03-02T02:26:14;12.60;99.90
10175;DHT22;18221;38.704;0.152;2024-03-02T02:28:42;12.50;99.90
10175;DHT22;18221;38.704;0.152;2024-03-02T02:31:12;12.50;99.90
10175;DHT22;18221;38.704;0.152;2024-03-02T02:33:40;12.50;99.90
10175;DHT22;18221;38.704;0.152;2024-03-02T02:36:08;12.40;99.90
10175;DHT22;18221;38.704;0.152;2024-03-02T02:38:40;12.40;99.90
10175;DHT22;18221;38.704;0.152;2024-03-02T02:41:12;12.40;99.90
10175;DHT22;18221;38.704;0.152;2024-03-02T02:43:40;12.40;99.90
10175;DHT22;18221;38.704;0.152;2024-03-02T02:46:08;12.40;99.90
10175;DHT22;18221;38.704;0.152;2024-03-02T02:48:36;12.40;99.90
10175;DHT22;18221;38.704;0.152;2024-03-02T02:51:04;12.30;99.90
10175;DHT22;18221;38.704;0.152;2024-03-02T02:53:31;12.30;99.90
10175;DHT22;18221;38.704;0.152;2024-03-02T02:56:03;12.30;99.90
10175;DHT22;18221;38.704;0.152;2024-03-02T02:58:31;12.30;99.90
10175;DHT22;18221;38.704;0.152;2024-03-02T03:00:59;12.20;99.90
10175;DHT22;18221;38.704;0.152;2024-03-02T03:03:26;12.30;99.90
10175;DHT22;18221;38.704;0.152;2024-03-02T03:05:54;12.20;99.90
10175;DHT22;18221;38.704;0.152;2024-03-02T03:08:22;12.20;99.90
10175;DHT22;18221;38.704;0.152;2024-03-02T03:10:50;12.20;99.90
10175;DHT22;18221;38.704;0.152;2024-03-02T03:13:19;12.20;99.90
10175;DHT22;18221;38.704;0.152;2024-03-02T03:15:47;12.20;99.90
10175;DHT22;18221;38.704;0.152;2024-03-02T03:18:15;12.20;99.90
10175;DHT22;18221;38.704;0.152;2024-03-02T03:20:43;12.20;99.90
10175;DHT22;18221;38.704;0.152;2024-03-02T03:23:11;12.20;99.90
10175;DHT22;18221;38.704;0.152;2024-03-02T03:25:42;12.20;99.90
10175;DHT22;18221;38.704;0.152;2024-03-02T03:28:10;12.20;99.90
10175;DHT22;18221;38.704;0.152;2024-03-02T03:30:40;12.10;99.90
10175;DHT22;18221;38.704;0.152;2024-03-02T03:33:08;12.20;99.90
10175;DHT22;18221;38.704;0.152;2024-03-02T03:35:36;12.10;99.90
10175;DHT22;18221;38.704;0.152;2024-03-02T03:38:04;12.10;99.90
10175;DHT22;18221;38.704;0.152;2024-03-02T03:40:32;12.00;99.90
10175;DHT22;18221;38.704;0.152;2024-03-02T03:43:00;12.00;99.90
10175;DHT22;18221;38.704;0.152;2024-03-02T03:45:28;12.00;99.90
10175;DHT22;18221;38.704;0.152;2024-03-02T03:47:57;12.00;99.90
10175;DHT22;18221;38.704;0.152;2024-03-02T03:50:25;12.00;99.90
10175;DHT22;18221;38.704;0.152;2024-03-02T03:52:53;12.00;99.90
10175;DHT22;18221;38.704;0.152;2024-03-02T03:55:21;11.90;99.90
10175;DHT22;18221;38.704;0.152;2024-03-02T03:57:49;12.00;99.90
10175;DHT22;18221;38.704;0.152;2024-03-02T04:00:17;11.90;99.90
10175;DHT22;18221;38.704;0.152;2024-03-02T04:02:45;11.90;99.90
10175;DHT22;18221;38.704;0.152;2024-03-02T04:05:14;11.90;99.90
10175;DHT22;18221;38.704;0.152;2024-03-02T04:07:42;11.90;99.90
10175;DHT22;18221;38.704;0.152;2024-03-02T04:10:10;11.80;99.90
10175;DHT22;18221;38.704;0.152;2024-03-02T04:12:38;11.80;99.90
10175;DHT22;18221;38.704;0.152;2024-03-02T04:15:06;11.80;99.90
10175;DHT22;18221;38.704;0.152;2024-03-02T04:17:35;11.70;99.90
10175;DHT22;18221;38.704;0.152;2024-03-02T04:20:03;11.70;99.90
10175;DHT22;18221;38.704;0.152;2024-03-02T04:22:34;11.70;99.90
10175;DHT22;18221;38.704;0.152;2024-03-02T04:25:03;11.70;99.90
10175;DHT22;18221;38.704;0.152;2024-03-02T04:27:33;11.70;99.90
10175;DHT22;18221;38.704;0.152;2024-03-02T04:30:00;11.70;99.90
10175;DHT22;18221;38.704;0.152;2024-03-02T04:32:29;11.60;99.90
10175;DHT22;18221;38.704;0.152;2024-03-02T04:34:57;11.60;99.90
10175;DHT22;18221;38.704;0.152;2024-03-02T04:37:25;12.40;99.90
10175;DHT22;18221;38.704;0.152;2024-03-02T04:39:54;11.60;99.90
10175;DHT22;18221;38.704;0.152;2024-03-02T04:42:22;11.60;99.90
10175;DHT22;18221;38.704;0.152;2024-03-02T04:44:50;11.60;99.90
10175;DHT22;18221;38.704;0.152;2024-03-02T04:47:18;11.50;99.90
10175;DHT22;18221;38.704;0.152;2024-03-02T04:49:46;11.50;99.90
10175;DHT22;18221;38.704;0.152;2024-03-02T04:52:14;11.50;99.90
10175;DHT22;18221;38.704;0.152;2024-03-02T04:54:41;11.50;99.90
10175;DHT22;18221;38.704;0.152;2024-03-02T04:57:24;11.40;99.90
10175;DHT22;18221;38.704;0.152;2024-03-02T04:59:52;11.40;99.90
10175;DHT22;18221;38.704;0.152;2024-03-02T05:02:20;11.40;99.90
10175;DHT22;18221;38.704;0.152;2024-03-02T05:04:48;11.40;99.90
10175;DHT22;18221;38.704;0.152;2024-03-02T05:07:16;11.40;99.90
10175;DHT22;18221;38.704;0.152;2024-03-02T05:09:43;11.30;99.90
10175;DHT22;18221;38.704;0.152;2024-03-02T05:12:11;11.30;99.90
10175;DHT22;18221;38.704;0.152;2024-03-02T05:15:02;11.30;99.90
10175;DHT22;18221;38.704;0.152;2024-03-02T05:17:30;11.30;99.90
10175;DHT22;18221;38.704;0.152;2024-03-02T05:19:58;11.30;99.90
10175;DHT22;18221;38.704;0.152;2024-03-02T05:22:26;11.30;99.90
10175;DHT22;18221;38.704;0.152;2024-03-02T05:24:54;11.30;99.90
10175;DHT22;18221;38.704;0.152;2024-03-02T05:27:22;11.30;99.90
10175;DHT22;18221;38.704;0.152;2024-03-02T05:29:50;11.30;99.90
10175;DHT22;18221;38.704;0.152;2024-03-02T05:32:19;11.30;99.90
10175;DHT22;18221;38.704;0.152;2024-03-02T05:34:47;11.30;99.90
10175;DHT22;18221;38.704;0.152;2024-03-02T05:37:16;11.30;99.90
10175;DHT22;18221;38.704;0.152;2024-03-02T05:39:44;11.30;99.90
10175;DHT22;18221;38.704;0.152;2024-03-02T05:42:13;11.30;99.90
10175;DHT22;18221;38.704;0.152;2024-03-02T05:44:42;11.30;99.90
10175;DHT22;18221;38.704;0.152;2024-03-02T05:47:10;11.30;99.90
10175;DHT22;18221;38.704;0.152;2024-03-02T05:49:39;11.30;99.90
10175;DHT22;18221;38.704;0.152;2024-03-02T05:52:07;11.30;99.90
10175;DHT22;18221;38.704;0.152;2024-03-02T05:54:34;11.40;99.90
10175;DHT22;18221;38.704;0.152;2024-03-02T05:57:02;11.30;99.90
10175;DHT22;18221;38.704;0.152;2024-03-02T05:59:48;11.40;99.90
10175;DHT22;18221;38.704;0.152;2024-03-02T06:02:16;11.40;99.90
10175;DHT22;18221;38.704;0.152;2024-03-02T06:04:45;11.30;99.90
10175;DHT22;18221;38.704;0.152;2024-03-02T06:07:13;11.40;99.90
10175;DHT22;18221;38.704;0.152;2024-03-02T06:09:41;11.30;99.90
10175;DHT22;18221;38.704;0.152;2024-03-02T06:12:10;11.40;99.90
10175;DHT22;18221;38.704;0.152;2024-03-02T06:14:40;11.40;99.90
10175;DHT22;18221;38.704;0.152;2024-03-02T06:17:07;11.40;99.90
10175;DHT22;18221;38.704;0.152;2024-03-02T06:19:35;11.40;99.90
10175;DHT22;18221;38.704;0.152;2024-03-02T06:22:04;11.40;99.90
10175;DHT22;18221;38.704;0.152;2024-03-02T06:24:36;11.40;99.90
10175;DHT22;18221;38.704;0.152;2024-03-02T06:27:05;11.40;99.90
10175;DHT22;18221;38.704;0.152;2024-03-02T06:29:33;11.30;99.90
10175;DHT22;18221;38.704;0.152;2024-03-02T06:32:01;11.30;99.90
10175;DHT22;18221;38.704;0.152;2024-03-02T06:34:28;11.30;99.90
10175;DHT22;18221;38.704;0.152;2024-03-02T06:36:57;11.20;99.90
10175;DHT22;18221;38.704;0.152;2024-03-02T06:39:26;11.20;99.90
10175;DHT22;18221;38.704;0.152;2024-03-02T06:41:54;11.20;99.90
10175;DHT22;18221;38.704;0.152;2024-03-02T06:44:21;11.20;99.90
10175;DHT22;18221;38.704;0.152;2024-03-02T06:46:49;11.10;99.90
10175;DHT22;18221;38.704;0.152;2024-03-02T06:49:17;11.20;99.90
10175;DHT22;18221;38.704;0.152;2024-03-02T06:51:45;11.20;99.90
10175;DHT22;18221;38.704;0.152;2024-03-02T06:54:13;11.20;99.90
10175;DHT22;18221;38.704;0.152;2024-03-02T06:56:42;11.20;99.90
10175;DHT22;18221;38.704;0.152;2024-03-02T06:59:10;11.20;99.90
10175;DHT22;18221;38.704;0.152;2024-03-02T07:01:37;11.20;99.90
10175;DHT22;18221;38.704;0.152;2024-03-02T07:04:05;11.20;99.90
10175;DHT22;18221;38.704;0.152;2024-03-02T07:06:33;11.30;99.90
10175;DHT22;18221;38.704;0.152;2024-03-02T07:09:01;11.30;99.90
10175;DHT22;18221;38.704;0.152;2024-03-02T07:11:29;11.30;99.90
10175;DHT22;18221;38.704;0.152;2024-03-02T07:13:58;11.40;99.90
10175;DHT22;18221;38.704;0.152;2024-03-02T07:16:26;11.40;99.90
10175;DHT22;18221;38.704;0.152;2024-03-02T07:18:59;11.40;99.90
10175;DHT22;18221;38.704;0.152;2024-03-02T07:21:27;11.40;99.90
10175;DHT22;18221;38.704;0.152;2024-03-02T07:23:55;11.40;99.90
10175;DHT22;18221;38.704;0.152;2024-03-02T07:26:23;11.40;99.90
10175;DHT22;18221;38.704;0.152;2024-03-02T07:28:51;11.40;99.90
10175;DHT22;18221;38.704;0.152;2024-03-02T07:31:21;11.50;99.90
10175;DHT22;18221;38.704;0.152;2024-03-02T07:33:49;11.40;99.90
10175;DHT22;18221;38.704;0.152;2024-03-02T07:36:17;11.50;99.90
10175;DHT22;18221;38.704;0.152;2024-03-02T07:38:45;11.50;99.90
10175;DHT22;18221;38.704;0.152;2024-03-02T07:41:16;11.50;99.90
10175;DHT22;18221;38.704;0.152;2024-03-02T07:43:44;11.50;99.90
10175;DHT22;18221;38.704;0.152;2024-03-02T07:46:13;11.50;99.90
10175;DHT22;18221;38.704;0.152;2024-03-02T07:48:42;11.50;99.90
10175;DHT22;18221;38.704;0.152;2024-03-02T07:51:10;11.60;99.90
10175;DHT22;18221;38.704;0.152;2024-03-02T07:53:39;11.60;99.90
10175;DHT22;18221;38.704;0.152;2024-03-02T07:56:07;11.70;99.90
10175;DHT22;18221;38.704;0.152;2024-03-02T07:58:35;11.70;99.90
10175;DHT22;18221;38.704;0.152;2024-03-02T08:01:03;11.70;99.90
10175;DHT22;18221;38.704;0.152;2024-03-02T08:03:31;11.70;99.90
10175;DHT22;18221;38.704;0.152;2024-03-02T08:06:01;11.80;99.90
10175;DHT22;18221;38.704;0.152;2024-03-02T08:08:29;11.80;99.90
10175;DHT22;18221;38.704;0.152;2024-03-02T08:10:57;11.80;99.90
10175;DHT22;18221;38.704;0.152;2024-03-02T08:13:25;11.80;99.90
10175;DHT22;18221;38.704;0.152;2024-03-02T08:15:53;11.90;99.90
10175;DHT22;18221;38.704;0.152;2024-03-02T08:18:21;12.00;99.90
10175;DHT22;18221;38.704;0.152;2024-03-02T08:20:48;12.00;99.90
10175;DHT22;18221;38.704;0.152;2024-03-02T08:23:18;12.00;99.90
10175;DHT22;18221;38.704;0.152;2024-03-02T08:25:46;12.10;99.90
10175;DHT22;18221;38.704;0.152;2024-03-02T08:28:14;12.20;99.90
10175;DHT22;18221;38.704;0.152;2024-03-02T08:30:42;12.30;99.90
10175;DHT22;18221;38.704;0.152;2024-03-02T08:33:09;12.40;99.90
10175;DHT22;18221;38.704;0.152;2024-03-02T08:35:37;12.40;99.90
10175;DHT22;18221;38.704;0.152;2024-03-02T08:38:05;12.60;99.90
10175;DHT22;18221;38.704;0.152;2024-03-02T08:40:34;12.60;99.90
10175;DHT22;18221;38.704;0.152;2024-03-02T08:43:02;12.70;99.90
10175;DHT22;18221;38.704;0.152;2024-03-02T08:45:30;12.70;99.90
10175;DHT22;18221;38.704;0.152;2024-03-02T08:47:58;12.80;99.90
10175;DHT22;18221;38.704;0.152;2024-03-02T08:50:26;12.90;99.90
10175;DHT22;18221;38.704;0.152;2024-03-02T08:52:53;12.90;99.90
10175;DHT22;18221;38.704;0.152;2024-03-02T08:55:21;12.90;99.90
10175;DHT22;18221;38.704;0.152;2024-03-02T08:57:50;13.00;99.90
10175;DHT22;18221;38.704;0.152;2024-03-02T09:00:18;13.10;99.90
10175;DHT22;18221;38.704;0.152;2024-03-02T09:02:47;13.10;99.90
10175;DHT22;18221;38.704;0.152;2024-03-02T09:05:15;13.20;99.90
10175;DHT22;18221;38.704;0.152;2024-03-02T09:07:43;13.20;99.90
10175;DHT22;18221;38.704;0.152;2024-03-02T09:10:11;13.30;99.90
10175;DHT22;18221;38.704;0.152;2024-03-02T09:12:39;13.40;99.90
10175;DHT22;18221;38.704;0.152;2024-03-02T09:15:09;13.40;99.90
10175;DHT22;18221;38.704;0.152;2024-03-02T09:17:37;13.40;99.90
10175;DHT22;18221;38.704;0.152;2024-03-02T09:20:05;13.40;99.90
10175;DHT22;18221;38.704;0.152;2024-03-02T09:22:34;13.30;99.90
10175;DHT22;18221;38.704;0.152;2024-03-02T09:25:02;13.30;99.90
10175;DHT22;18221;38.704;0.152;2024-03-02T09:27:30;13.40;99.90
10175;DHT22;18221;38.704;0.152;2024-03-02T09:29:58;13.40;99.90
10175;DHT22;18221;38.704;0.152;2024-03-02T09:32:27;13.50;99.90
10175;DHT22;18221;38.704;0.152;2024-03-02T09:34:55;13.50;99.90
10175;DHT22;18221;38.704;0.152;2024-03-02T09:37:24;13.60;99.90
10175;DHT22;18221;38.704;0.152;2024-03-02T09:39:52;13.60;99.90
10175;DHT22;18221;38.704;0.152;2024-03-02T09:42:20;13.60;99.90
10175;DHT22;18221;38.704;0.152;2024-03-02T09:44:49;13.60;99.90
10175;DHT22;18221;38.704;0.152;2024-03-02T09:47:17;13.60;99.90
10175;DHT22;18221;38.704;0.152;2024-03-02T09:49:47;13.60;99.90
10175;DHT22;18221;38.704;0.152;2024-03-02T09:52:14;13.60;99.90
10175;DHT22;18221;38.704;0.152;2024-03-02T09:54:43;14.20;99.90
10175;DHT22;18221;38.704;0.152;2024-03-02T09:57:11;13.60;99.90
10175;DHT22;18221;38.704;0.152;2024-03-02T09:59:38;13.70;99.90
10175;DHT22;18221;38.704;0.152;2024-03-02T10:02:06;13.70;99.90
10175;DHT22;18221;38.704;0.152;2024-03-02T10:04:35;13.70;99.90
10175;DHT22;18221;38.704;0.152;2024-03-02T10:07:14;13.70;99.90
10175;DHT22;18221;38.704;0.152;2024-03-02T10:09:45;13.80;99.90
10175;DHT22;18221;38.704;0.152;2024-03-02T10:12:14;13.90;99.90
10175;DHT22;18221;38.704;0.152;2024-03-02T10:14:43;13.90;99.90
10175;DHT22;18221;38.704;0.152;2024-03-02T10:17:17;14.00;99.90
10175;DHT22;18221;38.704;0.152;2024-03-02T10:19:45;14.00;99.90
10175;DHT22;18221;38.704;0.152;2024-03-02T10:22:14;14.10;99.90
10175;DHT22;18221;38.704;0.152;2024-03-02T10:24:44;14.10;99.90
10175;DHT22;18221;38.704;0.152;2024-03-02T10:27:16;14.10;99.90
10175;DHT22;18221;38.704;0.152;2024-03-02T10:29:47;14.10;99.90
10175;DHT22;18221;38.704;0.152;2024-03-02T10:32:15;14.20;99.90
10175;DHT22;18221;38.704;0.152;2024-03-02T10:34:45;14.20;99.90
10175;DHT22;18221;38.704;0.152;2024-03-02T10:37:16;14.20;99.90
10175;DHT22;18221;38.704;0.152;2024-03-02T10:39:46;14.20;99.90
10175;DHT22;18221;38.704;0.152;2024-03-02T10:42:14;14.20;99.90
10175;DHT22;18221;38.704;0.152;2024-03-02T10:44:43;14.20;99.90
10175;DHT22;18221;38.704;0.152;2024-03-02T10:47:12;14.20;99.90
10175;DHT22;18221;38.704;0.152;2024-03-02T10:49:42;14.30;99.90
10175;DHT22;18221;38.704;0.152;2024-03-02T10:52:15;14.50;99.90
10175;DHT22;18221;38.704;0.152;2024-03-02T10:54:43;14.50;99.90
10175;DHT22;18221;38.704;0.152;2024-03-02T10:57:11;14.40;99.90
10175;DHT22;18221;38.704;0.152;2024-03-02T10:59:51;14.50;99.90
10175;DHT22;18221;38.704;0.152;2024-03-02T11:02:24;14.50;99.90
10175;DHT22;18221;38.704;0.152;2024-03-02T11:04:55;14.60;99.90
10175;DHT22;18221;38.704;0.152;2024-03-02T11:07:25;14.60;99.90
10175;DHT22;18221;38.704;0.152;2024-03-02T11:09:59;14.60;99.90
10175;DHT22;18221;38.704;0.152;2024-03-02T11:12:37;14.60;99.90
10175;DHT22;18221;38.704;0.152;2024-03-02T11:15:10;14.60;99.90
10175;DHT22;18221;38.704;0.152;2024-03-02T11:17:42;14.80;99.90
10175;DHT22;18221;38.704;0.152;2024-03-02T11:20:12;14.80;99.90
10175;DHT22;18221;38.704;0.152;2024-03-02T11:22:42;14.70;99.90
10175;DHT22;18221;38.704;0.152;2024-03-02T11:25:23;14.80;99.90
10175;DHT22;18221;38.704;0.152;2024-03-02T11:28:02;14.90;99.90
10175;DHT22;18221;38.704;0.152;2024-03-02T11:30:50;14.80;99.90
10175;DHT22;18221;38.704;0.152;2024-03-02T11:33:25;14.90;99.90
10175;DHT22;18221;38.704;0.152;2024-03-02T11:35:57;14.90;99.90
10175;DHT22;18221;38.704;0.152;2024-03-02T11:38:31;14.90;99.90
10175;DHT22;18221;38.704;0.152;2024-03-02T11:41:01;14.90;99.90
10175;DHT22;18221;38.704;0.152;2024-03-02T11:43:29;15.00;99.90
10175;DHT22;18221;38.704;0.152;2024-03-02T11:46:00;15.10;99.90
10175;DHT22;18221;38.704;0.152;2024-03-02T11:48:33;15.10;99.90
10175;DHT22;18221;38.704;0.152;2024-03-02T11:51:02;15.00;99.90
10175;DHT22;18221;38.704;0.152;2024-03-02T11:53:33;15.10;99.90
10175;DHT22;18221;38.704;0.152;2024-03-02T11:56:06;15.20;99.90
10175;DHT22;18221;38.704;0.152;2024-03-02T11:58:38;15.10;99.90
10175;DHT22;18221;38.704;0.152;2024-03-02T12:01:08;15.10;99.90
10175;DHT22;18221;38.704;0.152;2024-03-02T12:03:38;15.20;99.90
10175;DHT22;18221;38.704;0.152;2024-03-02T12:06:06;15.30;99.90
10175;DHT22;18221;38.704;0.152;2024-03-02T12:08:36;15.30;99.90
10175;DHT22;18221;38.704;0.152;2024-03-02T12:11:05;15.30;99.90
10175;DHT22;18221;38.704;0.152;2024-03-02T12:13:33;15.40;99.90
10175;DHT22;18221;38.704;0.152;2024-03-02T12:16:01;15.40;99.90
10175;DHT22;18221;38.704;0.152;2024-03-02T12:18:29;15.40;99.90
10175;DHT22;18221;38.704;0.152;2024-03-02T12:20:57;15.20;99.90
10175;DHT22;18221;38.704;0.152;2024-03-02T12:23:25;15.20;99.90
10175;DHT22;18221;38.704;0.152;2024-03-02T12:25:55;15.40;99.90
10175;DHT22;18221;38.704;0.152;2024-03-02T12:28:23;15.60;99.90
10175;DHT22;18221;38.704;0.152;2024-03-02T12:30:50;15.60;99.90
10175;DHT22;18221;38.704;0.152;2024-03-02T12:33:20;15.60;99.90
10175;DHT22;18221;38.704;0.152;2024-03-02T12:35:49;15.70;99.90
10175;DHT22;18221;38.704;0.152;2024-03-02T12:38:17;15.80;99.90
10175;DHT22;18221;38.704;0.152;2024-03-02T12:40:47;15.80;99.90
10175;DHT22;18221;38.704;0.152;2024-03-02T12:43:17;16.00;99.90
10175;DHT22;18221;38.704;0.152;2024-03-02T12:45:45;16.00;99.90
10175;DHT22;18221;38.704;0.152;2024-03-02T12:48:14;16.20;99.90
10175;DHT22;18221;38.704;0.152;2024-03-02T12:50:42;16.10;99.90
10175;DHT22;18221;38.704;0.152;2024-03-02T12:53:15;16.10;99.90
10175;DHT22;18221;38.704;0.152;2024-03-02T12:55:43;16.00;99.90
10175;DHT22;18221;38.704;0.152;2024-03-02T12:58:19;16.00;99.90
10175;DHT22;18221;38.704;0.152;2024-03-02T13:00:48;16.00;99.90
10175;DHT22;18221;38.704;0.152;2024-03-02T13:03:18;16.00;99.90
10175;DHT22;18221;38.704;0.152;2024-03-02T13:05:49;15.90;99.90
10175;DHT22;18221;38.704;0.152;2024-03-02T13:08:17;15.70;99.90
10175;DHT22;18221;38.704;0.152;2024-03-02T13:10:45;15.80;99.90
10175;DHT22;18221;38.704;0.152;2024-03-02T13:13:13;15.80;99.90
10175;DHT22;18221;38.704;0.152;2024-03-02T13:15:42;15.70;99.90
10175;DHT22;18221;38.704;0.152;2024-03-02T13:18:11;15.80;99.90
10175;DHT22;18221;38.704;0.152;2024-03-02T13:20:39;15.80;99.90
10175;DHT22;18221;38.704;0.152;2024-03-02T13:23:06;15.90;99.90
10175;DHT22;18221;38.704;0.152;2024-03-02T13:25:34;16.00;99.90
10175;DHT22;18221;38.704;0.152;2024-03-02T13:28:02;15.90;99.90
10175;DHT22;18221;38.704;0.152;2024-03-02T13:30:30;16.10;99.90
10175;DHT22;18221;38.704;0.152;2024-03-02T13:32:59;16.10;99.90
10175;DHT22;18221;38.704;0.152;2024-03-02T13:35:27;16.20;99.90
10175;DHT22;18221;38.704;0.152;2024-03-02T13:37:55;16.10;99.90
10175;DHT22;18221;38.704;0.152;2024-03-02T13:40:23;16.20;99.90
10175;DHT22;18221;38.704;0.152;2024-03-02T13:42:51;16.20;99.90
10175;DHT22;18221;38.704;0.152;2024-03-02T13:45:20;16.20;99.90
10175;DHT22;18221;38.704;0.152;2024-03-02T13:47:47;16.30;99.90
10175;DHT22;18221;38.704;0.152;2024-03-02T13:50:17;16.50;99.90
10175;DHT22;18221;38.704;0.152;2024-03-02T13:52:45;16.60;99.90
10175;DHT22;18221;38.704;0.152;2024-03-02T13:55:13;16.70;99.90
10175;DHT22;18221;38.704;0.152;2024-03-02T13:57:42;16.80;99.90
10175;DHT22;18221;38.704;0.152;2024-03-02T14:00:10;16.80;99.90
10175;DHT22;18221;38.704;0.152;2024-03-02T14:02:39;16.80;99.90
10175;DHT22;18221;38.704;0.152;2024-03-02T14:05:07;16.90;99.90
10175;DHT22;18221;38.704;0.152;2024-03-02T14:07:39;16.80;99.90
10175;DHT22;18221;38.704;0.152;2024-03-02T14:10:08;16.60;99.90
10175;DHT22;18221;38.704;0.152;2024-03-02T14:12:36;16.60;99.90
10175;DHT22;18221;38.704;0.152;2024-03-02T14:15:05;16.50;99.90
10175;DHT22;18221;38.704;0.152;2024-03-02T14:17:34;16.60;99.90
10175;DHT22;18221;38.704;0.152;2024-03-02T14:20:02;16.50;99.90
10175;DHT22;18221;38.704;0.152;2024-03-02T14:22:30;16.50;99.90
10175;DHT22;18221;38.704;0.152;2024-03-02T14:25:01;16.60;99.90
10175;DHT22;18221;38.704;0.152;2024-03-02T14:27:29;16.40;99.90
10175;DHT22;18221;38.704;0.152;2024-03-02T14:29:56;16.30;99.90
10175;DHT22;18221;38.704;0.152;2024-03-02T14:32:24;16.40;99.90
10175;DHT22;18221;38.704;0.152;2024-03-02T14:34:52;16.40;99.90
10175;DHT22;18221;38.704;0.152;2024-03-02T14:37:20;16.30;99.90
10175;DHT22;18221;38.704;0.152;2024-03-02T14:39:48;16.30;99.90
10175;DHT22;18221;38.704;0.152;2024-03-02T14:42:17;16.20;99.90
10175;DHT22;18221;38.704;0.152;2024-03-02T14:44:45;16.10;99.90
10175;DHT22;18221;38.704;0.152;2024-03-02T14:47:13;16.00;99.90
10175;DHT22;18221;38.704;0.152;2024-03-02T14:49:41;16.00;99.90
10175;DHT22;18221;38.704;0.152;2024-03-02T14:52:10;16.10;99.90
10175;DHT22;18221;38.704;0.152;2024-03-02T14:54:38;16.30;99.90
10175;DHT22;18221;38.704;0.152;2024-03-02T14:57:07;16.20;99.90
10175;DHT22;18221;38.704;0.152;2024-03-02T14:59:38;16.30;99.90
10175;DHT22;18221;38.704;0.152;2024-03-02T15:02:06;16.30;99.90
10175;DHT22;18221;38.704;0.152;2024-03-02T15:04:35;16.30;99.90
10175;DHT22;18221;38.704;0.152;2024-03-02T15:07:03;16.30;99.90
10175;DHT22;18221;38.704;0.152;2024-03-02T15:09:31;16.20;99.90
10175;DHT22;18221;38.704;0.152;2024-03-02T15:12:00;16.10;99.90
10175;DHT22;18221;38.704;0.152;2024-03-02T15:14:29;15.90;99.90
10175;DHT22;18221;38.704;0.152;2024-03-02T15:16:58;15.90;99.90
10175;DHT22;18221;38.704;0.152;2024-03-02T15:19:26;15.70;99.90
10175;DHT22;18221;38.704;0.152;2024-03-02T15:21:54;15.60;99.90
10175;DHT22;18221;38.704;0.152;2024-03-02T15:24:22;15.50;99.90
10175;DHT22;18221;38.704;0.152;2024-03-02T15:26:50;15.40;99.90
10175;DHT22;18221;38.704;0.152;2024-03-02T15:29:18;15.40;99.90
10175;DHT22;18221;38.704;0.152;2024-03-02T15:31:48;15.50;99.90
10175;DHT22;18221;38.704;0.152;2024-03-02T15:34:17;15.70;99.90
10175;DHT22;18221;38.704;0.152;2024-03-02T15:36:45;15.70;99.90
10175;DHT22;18221;38.704;0.152;2024-03-02T15:39:13;15.60;99.90
10175;DHT22;18221;38.704;0.152;2024-03-02T15:41:42;15.40;99.90
10175;DHT22;18221;38.704;0.152;2024-03-02T15:44:11;15.30;99.90
10175;DHT22;18221;38.704;0.152;2024-03-02T15:46:39;15.10;99.90
10175;DHT22;18221;38.704;0.152;2024-03-02T15:49:07;15.10;99.90
10175;DHT22;18221;38.704;0.152;2024-03-02T15:51:36;15.00;99.90